createdAt,value
2018-05-31T00:00:34.505Z,86.72
2018-05-31T00:01:34.510Z,87.01
2018-05-31T00:02:34.505Z,86.82
2018-05-31T00:03:34.479Z,87.49
2018-05-31T00:04:34.469Z,87.30
2018-05-31T00:05:34.450Z,86.91
2018-05-31T00:06:34.439Z,86.82
2018-05-31T00:07:34.427Z,86.52
2018-05-31T00:08:34.418Z,87.35
2018-05-31T00:09:34.409Z,87.26
2018-05-31T00:10:34.398Z,88.12
2018-05-31T00:11:34.386Z,89.95
2018-05-31T00:12:34.374Z,90.24
2018-05-31T00:13:34.363Z,89.86
2018-05-31T00:14:34.349Z,92.27
2018-05-31T00:15:34.340Z,92.27
2018-05-31T00:16:34.331Z,92.46
2018-05-31T00:17:34.329Z,92.56
2018-05-31T00:18:34.321Z,92.27
2018-05-31T00:19:34.299Z,92.27
2018-05-31T00:20:34.300Z,92.41
2018-05-31T00:21:34.285Z,92.60
2018-05-31T00:22:34.265Z,91.93
2018-05-31T00:23:34.253Z,91.64
2018-05-31T00:24:34.238Z,90.96
2018-05-31T00:25:34.236Z,90.87
2018-05-31T00:26:34.319Z,91.06
2018-05-31T00:27:34.210Z,90.29
2018-05-31T00:28:34.200Z,90.77
2018-05-31T00:29:34.190Z,90.77
2018-05-31T00:30:34.173Z,90.29
2018-05-31T00:31:34.165Z,89.42
2018-05-31T00:32:34.160Z,88.84
2018-05-31T00:33:34.142Z,88.93
2018-05-31T00:34:34.140Z,89.37
2018-05-31T00:35:34.118Z,89.32
2018-05-31T00:36:34.110Z,89.90
2018-05-31T00:37:34.098Z,90.67
2018-05-31T00:38:34.086Z,91.06
2018-05-31T00:39:34.132Z,90.58
2018-05-31T00:40:34.063Z,88.89
2018-05-31T00:41:34.054Z,88.70
2018-05-31T00:42:34.050Z,88.70
2018-05-31T00:43:34.030Z,89.18
2018-05-31T00:44:34.020Z,90.05
2018-05-31T00:45:34.007Z,90.34
2018-05-31T00:46:33.998Z,90.34
2018-05-31T00:47:33.990Z,90.15
2018-05-31T00:48:33.976Z,90.53
2018-05-31T00:49:33.969Z,90.53
2018-05-31T00:50:33.960Z,90.44
2018-05-31T00:51:33.940Z,90.34
2018-05-31T00:52:33.929Z,90.63
2018-05-31T00:53:33.922Z,90.24
2018-05-31T00:54:33.910Z,90.15
2018-05-31T00:55:33.895Z,90.92
2018-05-31T00:56:33.889Z,90.24
2018-05-31T00:57:33.876Z,90.39
2018-05-31T00:58:33.913Z,90.88
2018-05-31T00:59:33.860Z,92.32
2018-05-31T01:00:33.843Z,92.13
2018-05-31T01:01:33.840Z,92.13
2018-05-31T01:02:33.817Z,92.99
2018-05-31T01:03:33.808Z,93.96
2018-05-31T01:04:33.793Z,93.76
2018-05-31T01:05:33.784Z,93.86
2018-05-31T01:06:33.776Z,94.24
2018-05-31T01:07:33.762Z,94.06
2018-05-31T01:08:33.750Z,93.86
2018-05-31T01:09:33.742Z,93.96
2018-05-31T01:10:33.726Z,94.06
2018-05-31T01:11:33.719Z,93.96
2018-05-31T01:12:33.708Z,93.76
2018-05-31T01:13:33.694Z,93.23
2018-05-31T01:14:33.684Z,93.33
2018-05-31T01:15:33.670Z,93.13
2018-05-31T01:16:33.660Z,92.94
2018-05-31T01:17:33.650Z,93.62
2018-05-31T01:18:33.637Z,93.71
2018-05-31T01:19:33.627Z,93.62
2018-05-31T01:20:33.617Z,93.91
2018-05-31T01:21:33.609Z,93.43
2018-05-31T01:22:33.606Z,94.20
2018-05-31T01:23:33.590Z,93.81
2018-05-31T01:24:33.574Z,92.85
2018-05-31T01:25:33.557Z,91.69
2018-05-31T01:26:33.558Z,91.69
2018-05-31T01:27:33.538Z,91.26
2018-05-31T01:28:33.528Z,91.64
2018-05-31T01:29:33.513Z,92.22
2018-05-31T01:30:33.502Z,92.32
2018-05-31T01:31:33.493Z,92.47
2018-05-31T01:32:33.479Z,92.76
2018-05-31T01:33:33.471Z,93.62
2018-05-31T01:34:33.463Z,93.04
2018-05-31T01:35:33.502Z,93.14
2018-05-31T01:36:33.442Z,93.72
2018-05-31T01:37:33.423Z,93.81
2018-05-31T01:38:33.412Z,93.14
2018-05-31T01:39:33.400Z,92.56
2018-05-31T01:40:33.390Z,92.61
2018-05-31T01:41:33.378Z,93.38
2018-05-31T01:42:33.372Z,92.61
2018-05-31T01:43:33.358Z,94.59
2018-05-31T01:44:33.353Z,94.97
2018-05-31T01:45:33.333Z,95.11
2018-05-31T01:46:33.323Z,94.10
2018-05-31T01:47:33.308Z,93.76
2018-05-31T01:48:33.302Z,93.28
2018-05-31T01:49:33.290Z,92.32
2018-05-31T01:50:33.276Z,92.99
2018-05-31T01:51:33.272Z,93.09
2018-05-31T01:52:33.249Z,93.76
2018-05-31T01:53:33.242Z,93.48
2018-05-31T01:54:33.227Z,93.28
2018-05-31T01:55:33.217Z,92.51
2018-05-31T01:56:33.207Z,90.00
2018-05-31T01:57:33.198Z,89.91
2018-05-31T01:58:33.187Z,89.81
2018-05-31T01:59:33.174Z,90.10
2018-05-31T02:00:33.173Z,90.10
2018-05-31T02:01:33.149Z,90.78
2018-05-31T02:02:33.145Z,91.26
2018-05-31T02:03:33.133Z,92.80
2018-05-31T02:04:33.163Z,93.09
2018-05-31T02:05:33.105Z,94.06
2018-05-31T02:06:33.092Z,93.96
2018-05-31T02:07:33.131Z,93.96
2018-05-31T02:08:33.069Z,94.54
2018-05-31T02:09:33.053Z,94.44
2018-05-31T02:10:33.044Z,94.63
2018-05-31T02:11:33.034Z,94.82
2018-05-31T02:12:33.020Z,94.44
2018-05-31T02:13:33.014Z,94.54
2018-05-31T02:14:33.002Z,93.86
2018-05-31T02:15:32.989Z,93.57
2018-05-31T02:16:32.977Z,93.96
2018-05-31T02:17:32.967Z,94.48
2018-05-31T02:18:32.957Z,93.96
2018-05-31T02:19:32.942Z,94.20
2018-05-31T02:20:32.930Z,94.68
2018-05-31T02:21:32.917Z,94.10
2018-05-31T02:22:32.912Z,94.29
2018-05-31T02:23:32.894Z,93.91
2018-05-31T02:24:32.883Z,94.00
2018-05-31T02:25:32.876Z,94.20
2018-05-31T02:26:32.862Z,94.00
2018-05-31T02:27:32.852Z,93.71
2018-05-31T02:28:32.841Z,92.46
2018-05-31T02:29:32.835Z,91.83
2018-05-31T02:30:32.817Z,91.83
2018-05-31T02:31:32.808Z,93.76
2018-05-31T02:32:32.791Z,95.59
2018-05-31T02:33:32.790Z,95.31
2018-05-31T02:34:32.769Z,95.98
2018-05-31T02:35:32.759Z,96.56
2018-05-31T02:36:32.746Z,97.14
2018-05-31T02:37:32.737Z,97.24
2018-05-31T02:38:32.726Z,96.17
2018-05-31T02:39:32.711Z,96.56
2018-05-31T02:40:32.701Z,96.08
2018-05-31T02:41:32.689Z,95.89
2018-05-31T02:42:32.681Z,95.59
2018-05-31T02:43:32.667Z,95.11
2018-05-31T02:44:32.653Z,96.08
2018-05-31T02:45:32.641Z,94.82
2018-05-31T02:46:32.629Z,95.50
2018-05-31T02:47:32.634Z,95.79
2018-05-31T02:48:32.609Z,95.02
2018-05-31T02:49:32.593Z,95.02
2018-05-31T02:50:32.601Z,94.63
2018-05-31T02:51:32.569Z,95.02
2018-05-31T02:52:32.560Z,95.02
2018-05-31T02:53:32.550Z,94.73
2018-05-31T02:54:32.540Z,94.82
2018-05-31T02:55:32.525Z,95.02
2018-05-31T02:56:32.514Z,95.02
2018-05-31T02:57:32.508Z,95.21
2018-05-31T02:58:32.489Z,95.02
2018-05-31T02:59:32.479Z,94.73
2018-05-31T03:00:32.517Z,94.73
2018-05-31T03:01:32.460Z,95.02
2018-05-31T03:02:32.444Z,94.63
2018-05-31T03:03:32.483Z,94.92
2018-05-31T03:04:32.423Z,94.63
2018-05-31T03:05:32.411Z,94.34
2018-05-31T03:06:32.396Z,94.15
2018-05-31T03:07:32.396Z,93.96
2018-05-31T03:08:32.379Z,94.39
2018-05-31T03:09:32.365Z,94.15
2018-05-31T03:10:32.357Z,94.20
2018-05-31T03:11:32.349Z,94.34
2018-05-31T03:12:32.333Z,94.34
2018-05-31T03:13:32.321Z,94.24
2018-05-31T03:14:32.306Z,94.15
2018-05-31T03:15:32.294Z,93.48
2018-05-31T03:16:32.281Z,94.15
2018-05-31T03:17:32.270Z,93.96
2018-05-31T03:18:32.268Z,93.38
2018-05-31T03:19:32.246Z,93.57
2018-05-31T03:20:32.240Z,93.86
2018-05-31T03:21:32.338Z,93.76
2018-05-31T03:22:32.215Z,94.34
2018-05-31T03:23:32.201Z,94.63
2018-05-31T03:24:32.191Z,94.24
2018-05-31T03:25:32.180Z,94.34
2018-05-31T03:26:32.168Z,94.54
2018-05-31T03:27:32.158Z,94.82
2018-05-31T03:28:32.148Z,95.21
2018-05-31T03:29:32.138Z,95.40
2018-05-31T03:30:32.122Z,94.63
2018-05-31T03:31:32.111Z,94.82
2018-05-31T03:32:32.097Z,94.92
2018-05-31T03:33:32.090Z,95.98
2018-05-31T03:34:32.073Z,96.37
2018-05-31T03:35:32.064Z,97.47
2018-05-31T03:36:32.055Z,97.47
2018-05-31T03:37:32.051Z,97.47
2018-05-31T03:38:32.033Z,97.47
2018-05-31T03:39:32.018Z,98.00
2018-05-31T03:40:32.061Z,98.05
2018-05-31T03:41:31.995Z,97.28
2018-05-31T03:42:31.982Z,97.76
2018-05-31T03:43:31.972Z,97.14
2018-05-31T03:44:31.961Z,97.24
2018-05-31T03:45:31.945Z,97.04
2018-05-31T03:46:31.937Z,97.67
2018-05-31T03:47:31.922Z,97.09
2018-05-31T03:48:31.910Z,97.19
2018-05-31T03:49:31.898Z,97.47
2018-05-31T03:50:31.890Z,97.76
2018-05-31T03:51:31.883Z,97.19
2018-05-31T03:52:31.868Z,97.19
2018-05-31T03:53:31.868Z,97.04
2018-05-31T03:54:31.839Z,97.62
2018-05-31T03:55:31.828Z,97.72
2018-05-31T03:56:31.916Z,98.10
2018-05-31T03:57:31.804Z,97.81
2018-05-31T03:58:31.797Z,97.72
2018-05-31T03:59:31.786Z,98.00
2018-05-31T04:00:31.771Z,97.81
2018-05-31T04:01:31.768Z,98.20
2018-05-31T04:02:31.748Z,97.72
2018-05-31T04:03:31.732Z,97.04
2018-05-31T04:04:31.725Z,96.94
2018-05-31T04:05:31.710Z,97.24
2018-05-31T04:06:31.699Z,97.14
2018-05-31T04:07:31.689Z,96.17
2018-05-31T04:08:31.678Z,95.98
2018-05-31T04:09:31.670Z,95.89
2018-05-31T04:10:31.657Z,96.17
2018-05-31T04:11:31.640Z,95.89
2018-05-31T04:12:31.629Z,95.79
2018-05-31T04:13:31.616Z,95.59
2018-05-31T04:14:31.618Z,95.40
2018-05-31T04:15:31.600Z,95.45
2018-05-31T04:16:31.583Z,95.02
2018-05-31T04:17:31.577Z,95.50
2018-05-31T04:18:31.562Z,95.69
2018-05-31T04:19:31.547Z,94.92
2018-05-31T04:20:31.535Z,95.21
2018-05-31T04:21:31.530Z,95.02
2018-05-31T04:22:31.511Z,95.93
2018-05-31T04:23:31.499Z,96.08
2018-05-31T04:24:31.487Z,95.45
2018-05-31T04:25:31.478Z,95.93
2018-05-31T04:26:31.469Z,95.69
2018-05-31T04:27:31.456Z,96.22
2018-05-31T04:28:31.442Z,95.36
2018-05-31T04:29:31.430Z,95.84
2018-05-31T04:30:31.420Z,95.26
2018-05-31T04:31:31.406Z,95.06
2018-05-31T04:32:31.402Z,95.84
2018-05-31T04:33:31.435Z,95.74
2018-05-31T04:34:31.374Z,95.45
2018-05-31T04:35:31.359Z,95.45
2018-05-31T04:36:31.349Z,95.06
2018-05-31T04:37:31.338Z,95.26
2018-05-31T04:38:31.330Z,94.87
2018-05-31T04:39:31.313Z,94.48
2018-05-31T04:40:31.307Z,94.48
2018-05-31T04:41:31.290Z,94.87
2018-05-31T04:42:31.303Z,95.26
2018-05-31T04:43:31.266Z,95.26
2018-05-31T04:44:31.258Z,94.68
2018-05-31T04:45:31.260Z,94.39
2018-05-31T04:46:31.239Z,95.11
2018-05-31T04:47:31.220Z,95.21
2018-05-31T04:48:31.211Z,95.40
2018-05-31T04:49:31.201Z,95.21
2018-05-31T04:50:31.188Z,94.63
2018-05-31T04:51:31.173Z,94.43
2018-05-31T04:52:31.165Z,94.73
2018-05-31T04:53:31.158Z,94.34
2018-05-31T04:54:31.143Z,94.63
2018-05-31T04:55:31.128Z,94.24
2018-05-31T04:56:31.120Z,94.15
2018-05-31T04:57:31.115Z,93.76
2018-05-31T04:58:31.093Z,93.66
2018-05-31T04:59:31.090Z,93.66
2018-05-31T05:00:31.071Z,94.20
2018-05-31T05:01:31.066Z,93.95
2018-05-31T05:02:31.054Z,94.39
2018-05-31T05:03:31.039Z,94.48
2018-05-31T05:04:31.032Z,94.58
2018-05-31T05:05:31.027Z,94.96
2018-05-31T05:06:31.007Z,94.78
2018-05-31T05:07:31.000Z,95.06
2018-05-31T05:08:30.979Z,96.12
2018-05-31T05:09:30.968Z,95.26
2018-05-31T05:10:31.055Z,95.06
2018-05-31T05:11:30.943Z,95.06
2018-05-31T05:12:30.937Z,94.78
2018-05-31T05:13:30.921Z,94.34
2018-05-31T05:14:30.911Z,94.63
2018-05-31T05:15:30.903Z,95.01
2018-05-31T05:16:30.894Z,94.24
2018-05-31T05:17:30.879Z,94.53
2018-05-31T05:18:30.865Z,94.24
2018-05-31T05:19:30.857Z,93.66
2018-05-31T05:20:30.846Z,92.84
2018-05-31T05:21:30.834Z,92.65
2018-05-31T05:22:30.822Z,93.32
2018-05-31T05:23:30.808Z,93.42
2018-05-31T05:24:30.799Z,93.71
2018-05-31T05:25:30.786Z,92.80
2018-05-31T05:26:30.793Z,92.84
2018-05-31T05:27:30.771Z,92.80
2018-05-31T05:28:30.752Z,92.84
2018-05-31T05:29:30.738Z,92.84
2018-05-31T05:30:30.728Z,92.94
2018-05-31T05:31:30.725Z,92.74
2018-05-31T05:32:30.707Z,92.84
2018-05-31T05:33:30.699Z,91.97
2018-05-31T05:34:30.696Z,91.97
2018-05-31T05:35:30.672Z,92.26
2018-05-31T05:36:30.669Z,91.73
2018-05-31T05:37:30.654Z,90.91
2018-05-31T05:38:30.642Z,90.72
2018-05-31T05:39:30.629Z,90.72
2018-05-31T05:40:30.613Z,91.30
2018-05-31T05:41:30.601Z,91.05
2018-05-31T05:42:30.603Z,91.35
2018-05-31T05:43:30.584Z,91.25
2018-05-31T05:44:30.568Z,90.67
2018-05-31T05:45:30.555Z,90.37
2018-05-31T05:46:30.543Z,90.67
2018-05-31T05:47:30.531Z,90.67
2018-05-31T05:48:30.529Z,90.37
2018-05-31T05:49:30.510Z,90.47
2018-05-31T05:50:30.501Z,90.95
2018-05-31T05:51:30.492Z,90.28
2018-05-31T05:52:30.475Z,90.57
2018-05-31T05:53:30.476Z,89.31
2018-05-31T05:54:30.457Z,90.57
2018-05-31T05:55:30.443Z,90.95
2018-05-31T05:56:30.476Z,89.41
2018-05-31T05:57:30.422Z,88.97
2018-05-31T05:58:30.411Z,88.25
2018-05-31T05:59:30.401Z,88.49
2018-05-31T06:00:30.388Z,88.39
2018-05-31T06:01:30.381Z,88.39
2018-05-31T06:02:30.368Z,88.20
2018-05-31T06:03:30.360Z,88.01
2018-05-31T06:04:30.343Z,88.49
2018-05-31T06:05:30.333Z,88.01
2018-05-31T06:06:30.331Z,87.43
2018-05-31T06:07:30.312Z,87.23
2018-05-31T06:08:30.307Z,87.71
2018-05-31T06:09:30.288Z,87.76
2018-05-31T06:10:30.280Z,87.57
2018-05-31T06:11:30.269Z,86.85
2018-05-31T06:12:30.258Z,86.56
2018-05-31T06:13:30.248Z,88.01
2018-05-31T06:14:30.236Z,88.63
2018-05-31T06:15:30.269Z,89.31
2018-05-31T06:16:30.211Z,89.11
2018-05-31T06:17:30.204Z,88.53
2018-05-31T06:18:30.192Z,88.24
2018-05-31T06:19:30.187Z,87.47
2018-05-31T06:20:30.171Z,87.85
2018-05-31T06:21:30.156Z,87.18
2018-05-31T06:22:30.200Z,87.66
2018-05-31T06:23:30.132Z,87.66
2018-05-31T06:24:30.178Z,86.89
2018-05-31T06:25:30.115Z,87.57
2018-05-31T06:26:30.398Z,86.79
2018-05-31T06:27:30.091Z,87.08
2018-05-31T06:28:30.092Z,86.99
2018-05-31T06:29:30.075Z,87.18
2018-05-31T06:30:30.058Z,86.11
2018-05-31T06:31:30.045Z,85.93
2018-05-31T06:32:30.033Z,86.79
2018-05-31T06:33:30.032Z,86.51
2018-05-31T06:34:30.020Z,85.87
2018-05-31T06:35:30.015Z,85.19
2018-05-31T06:36:29.990Z,85.10
2018-05-31T06:37:29.986Z,85.19
2018-05-31T06:38:30.019Z,84.80
2018-05-31T06:39:29.958Z,84.90
2018-05-31T06:40:29.953Z,84.71
2018-05-31T06:41:29.939Z,84.03
2018-05-31T06:42:29.930Z,83.94
2018-05-31T06:43:29.916Z,85.29
2018-05-31T06:44:29.912Z,84.32
2018-05-31T06:45:29.893Z,84.61
2018-05-31T06:46:29.887Z,84.52
2018-05-31T06:47:29.868Z,83.98
2018-05-31T06:48:29.865Z,83.45
2018-05-31T06:49:29.852Z,82.87
2018-05-31T06:50:29.841Z,85.00
2018-05-31T06:51:29.831Z,84.46
2018-05-31T06:52:29.820Z,84.17
2018-05-31T06:53:29.815Z,83.40
2018-05-31T06:54:29.800Z,84.94
2018-05-31T06:55:29.792Z,83.11
2018-05-31T06:56:29.779Z,81.95
2018-05-31T06:57:29.768Z,83.11
2018-05-31T06:58:29.770Z,82.91
2018-05-31T06:59:29.753Z,83.49
2018-05-31T07:00:29.736Z,82.81
2018-05-31T07:01:29.729Z,83.49
2018-05-31T07:02:29.712Z,83.11
2018-05-31T07:03:29.700Z,83.40
2018-05-31T07:04:29.691Z,83.15
2018-05-31T07:05:29.680Z,84.11
2018-05-31T07:06:29.672Z,83.44
2018-05-31T07:07:29.661Z,82.95
2018-05-31T07:08:29.648Z,84.21
2018-05-31T07:09:29.643Z,83.25
2018-05-31T07:10:29.625Z,84.16
2018-05-31T07:11:29.616Z,83.83
2018-05-31T07:12:29.609Z,83.28
2018-05-31T07:13:29.596Z,83.86
2018-05-31T07:14:29.586Z,84.06
2018-05-31T07:15:29.579Z,84.35
2018-05-31T07:16:29.562Z,85.31
2018-05-31T07:17:29.554Z,83.77
2018-05-31T07:18:29.571Z,84.16
2018-05-31T07:19:29.531Z,83.77
2018-05-31T07:20:29.529Z,84.50
2018-05-31T07:21:29.511Z,84.01
2018-05-31T07:22:29.506Z,83.67
2018-05-31T07:23:29.490Z,82.90
2018-05-31T07:24:29.481Z,83.00
2018-05-31T07:25:29.582Z,81.05
2018-05-31T07:26:29.459Z,81.64
2018-05-31T07:27:29.450Z,82.22
2018-05-31T07:28:29.470Z,79.60
2018-05-31T07:29:29.427Z,81.48
2018-05-31T07:30:29.419Z,78.58
2018-05-31T07:31:29.407Z,79.55
2018-05-31T07:32:29.404Z,78.97
2018-05-31T07:33:29.396Z,78.87
2018-05-31T07:34:29.386Z,78.97
2018-05-31T07:35:29.364Z,78.87
2018-05-31T07:36:29.361Z,78.09
2018-05-31T07:37:29.344Z,79.58
2018-05-31T07:38:29.332Z,79.97
2018-05-31T07:39:29.335Z,77.65
2018-05-31T07:40:29.340Z,78.03
2018-05-31T07:41:29.326Z,78.03
2018-05-31T07:42:29.295Z,76.32
2018-05-31T07:43:29.280Z,75.81
2018-05-31T07:44:29.328Z,76.58
2018-05-31T07:45:29.274Z,75.42
2018-05-31T07:46:29.258Z,77.49
2018-05-31T07:47:29.247Z,76.52
2018-05-31T07:48:29.237Z,76.91
2018-05-31T07:49:29.271Z,76.81
2018-05-31T07:50:29.216Z,76.72
2018-05-31T07:51:29.210Z,75.65
2018-05-31T07:52:29.249Z,75.68
2018-05-31T07:53:29.184Z,75.59
2018-05-31T07:54:29.177Z,76.07
2018-05-31T07:55:29.162Z,74.52
2018-05-31T07:56:29.152Z,76.17
2018-05-31T07:57:29.143Z,74.52
2018-05-31T07:58:29.137Z,73.52
2018-05-31T07:59:29.133Z,74.13
2018-05-31T08:00:29.111Z,74.13
2018-05-31T08:01:29.107Z,74.62
2018-05-31T08:02:29.099Z,74.62
2018-05-31T08:03:29.089Z,74.97
2018-05-31T08:04:29.072Z,75.45
2018-05-31T08:05:29.115Z,78.17
2018-05-31T08:06:29.056Z,76.32
2018-05-31T08:07:29.059Z,74.77
2018-05-31T08:08:29.040Z,74.49
2018-05-31T08:09:29.034Z,75.88
2018-05-31T08:10:29.018Z,75.10
2018-05-31T08:11:29.014Z,74.49
2018-05-31T08:12:29.000Z,74.62
2018-05-31T08:13:28.987Z,75.10
2018-05-31T08:14:28.986Z,74.75
2018-05-31T08:15:28.969Z,74.85
2018-05-31T08:16:28.961Z,74.37
2018-05-31T08:17:28.955Z,73.43
2018-05-31T08:18:28.942Z,72.71
2018-05-31T08:19:28.933Z,73.49
2018-05-31T08:20:28.920Z,72.91
2018-05-31T08:21:28.965Z,72.61
2018-05-31T08:22:28.905Z,73.33
2018-05-31T08:23:28.909Z,72.75
2018-05-31T08:24:28.892Z,73.52
2018-05-31T08:25:28.869Z,73.04
2018-05-31T08:26:28.877Z,72.45
2018-05-31T08:27:28.860Z,72.45
2018-05-31T08:28:28.845Z,73.46
2018-05-31T08:29:28.838Z,71.13
2018-05-31T08:30:28.825Z,71.13
2018-05-31T08:31:28.961Z,71.33
2018-05-31T08:32:28.808Z,70.36
2018-05-31T08:33:28.806Z,71.13
2018-05-31T08:34:28.814Z,71.03
2018-05-31T08:35:28.781Z,72.01
2018-05-31T08:36:28.770Z,71.72
2018-05-31T08:37:28.764Z,70.55
2018-05-31T08:38:28.751Z,70.94
2018-05-31T08:39:28.745Z,70.06
2018-05-31T08:40:28.735Z,69.67
2018-05-31T08:41:28.726Z,69.19
2018-05-31T08:42:28.719Z,70.42
2018-05-31T08:43:28.712Z,71.20
2018-05-31T08:44:28.700Z,71.10
2018-05-31T08:45:28.687Z,71.00
2018-05-31T08:46:28.680Z,71.97
2018-05-31T08:47:28.676Z,72.45
2018-05-31T08:48:28.671Z,70.90
2018-05-31T08:49:28.653Z,71.00
2018-05-31T08:50:28.653Z,69.87
2018-05-31T08:51:28.634Z,70.26
2018-05-31T08:52:28.631Z,70.06
2018-05-31T08:53:28.622Z,70.75
2018-05-31T08:54:28.609Z,70.06
2018-05-31T08:55:28.643Z,69.48
2018-05-31T08:56:28.594Z,70.26
2018-05-31T08:57:28.580Z,69.58
2018-05-31T08:58:28.585Z,68.99
2018-05-31T08:59:28.563Z,68.70
2018-05-31T09:00:28.573Z,68.99
2018-05-31T09:01:28.547Z,69.77
2018-05-31T09:02:28.535Z,69.77
2018-05-31T09:03:28.531Z,68.80
2018-05-31T09:04:28.520Z,68.64
2018-05-31T09:05:28.509Z,68.93
2018-05-31T09:06:28.498Z,66.63
2018-05-31T09:07:28.495Z,66.83
2018-05-31T09:08:28.500Z,66.24
2018-05-31T09:09:28.477Z,65.56
2018-05-31T09:10:28.472Z,67.02
2018-05-31T09:11:28.462Z,68.48
2018-05-31T09:12:28.448Z,68.51
2018-05-31T09:13:28.442Z,66.76
2018-05-31T09:14:28.435Z,66.47
2018-05-31T09:15:28.420Z,64.72
2018-05-31T09:16:28.420Z,65.11
2018-05-31T09:17:28.406Z,64.52
2018-05-31T09:18:28.412Z,63.35
2018-05-31T09:19:28.392Z,63.94
2018-05-31T09:20:28.386Z,67.05
2018-05-31T09:21:28.368Z,64.94
2018-05-31T09:22:28.364Z,65.63
2018-05-31T09:23:28.351Z,63.45
2018-05-31T09:24:28.404Z,63.65
2018-05-31T09:25:28.333Z,65.20
2018-05-31T09:26:28.337Z,64.13
2018-05-31T09:27:28.321Z,62.48
2018-05-31T09:28:28.322Z,63.13
2018-05-31T09:29:28.304Z,63.78
2018-05-31T09:30:28.294Z,66.21
2018-05-31T09:31:28.283Z,64.56
2018-05-31T09:32:28.282Z,65.43
2018-05-31T09:33:28.269Z,65.43
2018-05-31T09:34:28.259Z,65.92
2018-05-31T09:35:28.255Z,65.53
2018-05-31T09:36:28.237Z,65.72
2018-05-31T09:37:28.240Z,65.33
2018-05-31T09:38:28.222Z,65.53
2018-05-31T09:39:28.214Z,67.50
2018-05-31T09:40:28.208Z,66.53
2018-05-31T09:41:28.205Z,64.29
2018-05-31T09:42:28.190Z,63.42
2018-05-31T09:43:28.182Z,63.81
2018-05-31T09:44:28.173Z,63.35
2018-05-31T09:45:28.164Z,65.11
2018-05-31T09:46:28.169Z,63.45
2018-05-31T09:47:28.153Z,61.99
2018-05-31T09:48:28.152Z,62.45
2018-05-31T09:49:28.131Z,63.42
2018-05-31T09:50:28.121Z,63.62
2018-05-31T09:51:28.122Z,63.71
2018-05-31T09:52:28.104Z,64.00
2018-05-31T09:53:28.097Z,65.17
2018-05-31T09:54:28.091Z,63.32
2018-05-31T09:55:28.083Z,63.81
2018-05-31T09:56:28.070Z,63.29
2018-05-31T09:57:28.081Z,63.81
2018-05-31T09:58:28.066Z,64.07
2018-05-31T09:59:28.044Z,64.26
2018-05-31T10:00:28.035Z,63.97
2018-05-31T10:01:28.027Z,64.59
2018-05-31T10:02:28.163Z,63.32
2018-05-31T10:03:28.010Z,63.42
2018-05-31T10:04:28.002Z,62.45
2018-05-31T10:05:28.050Z,61.38
2018-05-31T10:06:27.994Z,61.21
2018-05-31T10:07:27.978Z,62.48
2018-05-31T10:08:28.089Z,63.09
2018-05-31T10:09:27.958Z,60.75
2018-05-31T10:10:27.954Z,61.63
2018-05-31T10:11:28.192Z,61.15
2018-05-31T10:12:27.932Z,60.27
2018-05-31T10:13:27.936Z,60.17
2018-05-31T10:14:28.215Z,61.34
2018-05-31T10:15:27.909Z,60.27
2018-05-31T10:16:27.917Z,61.73
2018-05-31T10:17:28.040Z,62.80
2018-05-31T10:18:27.886Z,62.54
2018-05-31T10:19:27.875Z,62.73
2018-05-31T10:20:27.868Z,62.25
2018-05-31T10:21:27.860Z,61.34
2018-05-31T10:22:27.851Z,63.09
2018-05-31T10:23:27.877Z,62.90
2018-05-31T10:24:27.833Z,61.44
2018-05-31T10:25:27.824Z,62.51
2018-05-31T10:26:27.826Z,62.60
2018-05-31T10:27:27.871Z,62.32
2018-05-31T10:28:27.810Z,62.51
2018-05-31T10:29:27.803Z,62.48
2018-05-31T10:30:27.787Z,61.41
2018-05-31T10:31:27.780Z,62.09
2018-05-31T10:32:27.766Z,62.48
2018-05-31T10:33:27.773Z,62.87
2018-05-31T10:34:27.753Z,63.52
2018-05-31T10:35:27.741Z,64.00
2018-05-31T10:36:27.736Z,64.49
2018-05-31T10:37:27.726Z,64.78
2018-05-31T10:38:27.720Z,63.32
2018-05-31T10:39:27.722Z,62.19
2018-05-31T10:40:27.774Z,60.44
2018-05-31T10:41:27.690Z,60.82
2018-05-31T10:42:27.688Z,61.41
2018-05-31T10:43:27.674Z,61.21
2018-05-31T10:44:27.670Z,60.34
2018-05-31T10:45:27.661Z,60.92
2018-05-31T10:46:27.661Z,61.51
2018-05-31T10:47:27.641Z,61.02
2018-05-31T10:48:27.663Z,61.21
2018-05-31T10:49:27.621Z,62.19
2018-05-31T10:50:27.618Z,61.34
2018-05-31T10:51:27.609Z,61.54
2018-05-31T10:52:27.600Z,60.27
2018-05-31T10:53:27.610Z,59.33
2018-05-31T10:54:27.580Z,58.74
2018-05-31T10:55:27.578Z,58.35
2018-05-31T10:56:27.563Z,60.20
2018-05-31T10:57:27.561Z,58.67
2018-05-31T10:58:27.561Z,57.11
2018-05-31T10:59:27.539Z,56.14
2018-05-31T11:00:27.533Z,56.04
2018-05-31T11:01:27.605Z,57.79
2018-05-31T11:02:27.621Z,57.99
2018-05-31T11:03:27.511Z,57.21
2018-05-31T11:04:27.510Z,57.40
2018-05-31T11:05:27.503Z,58.77
2018-05-31T11:06:27.501Z,58.28
2018-05-31T11:07:27.476Z,57.79
2018-05-31T11:08:27.469Z,57.73
2018-05-31T11:09:27.461Z,56.46
2018-05-31T11:10:27.473Z,57.43
2018-05-31T11:11:27.452Z,57.01
2018-05-31T11:12:27.439Z,56.04
2018-05-31T11:13:27.430Z,57.79
2018-05-31T11:14:27.436Z,56.50
2018-05-31T11:15:27.421Z,57.96
2018-05-31T11:16:27.406Z,57.96
2018-05-31T11:17:27.458Z,58.32
2018-05-31T11:18:27.390Z,58.51
2018-05-31T11:19:27.387Z,58.20
2018-05-31T11:20:27.374Z,58.69
2018-05-31T11:21:27.366Z,59.14
2018-05-31T11:22:27.366Z,60.41
2018-05-31T11:23:27.363Z,59.66
2018-05-31T11:24:27.341Z,60.34
2018-05-31T11:25:27.335Z,60.63
2018-05-31T11:26:27.328Z,61.21
2018-05-31T11:27:27.320Z,60.53
2018-05-31T11:28:27.320Z,58.10
2018-05-31T11:29:27.301Z,57.90
2018-05-31T11:30:27.302Z,58.97
2018-05-31T11:31:27.288Z,57.90
2018-05-31T11:32:27.280Z,58.10
2018-05-31T11:33:27.323Z,59.07
2018-05-31T11:34:27.263Z,58.97
2018-05-31T11:35:27.249Z,59.95
2018-05-31T11:36:27.248Z,60.44
2018-05-31T11:37:27.240Z,59.56
2018-05-31T11:38:27.227Z,60.72
2018-05-31T11:39:27.232Z,59.27
2018-05-31T11:40:27.212Z,59.17
2018-05-31T11:41:27.202Z,58.97
2018-05-31T11:42:27.195Z,60.14
2018-05-31T11:43:27.186Z,60.14
2018-05-31T11:44:27.182Z,60.44
2018-05-31T11:45:27.180Z,60.72
2018-05-31T11:46:27.181Z,60.82
2018-05-31T11:47:27.155Z,61.02
2018-05-31T11:48:27.151Z,61.51
2018-05-31T11:49:27.141Z,61.15
2018-05-31T11:50:27.132Z,60.53
2018-05-31T11:51:27.129Z,58.71
2018-05-31T11:52:27.125Z,58.06
2018-05-31T11:53:27.118Z,56.79
2018-05-31T11:54:27.099Z,57.21
2018-05-31T11:55:27.092Z,57.99
2018-05-31T11:56:27.136Z,57.70
2018-05-31T11:57:27.081Z,56.04
2018-05-31T11:58:27.061Z,56.65
2018-05-31T11:59:27.052Z,56.75
2018-05-31T12:00:27.051Z,56.77
2018-05-31T12:01:27.039Z,55.09
2018-05-31T12:02:27.040Z,53.63
2018-05-31T12:03:27.021Z,55.38
2018-05-31T12:04:27.088Z,55.58
2018-05-31T12:05:27.013Z,56.07
2018-05-31T12:06:27.045Z,54.73
2018-05-31T12:07:26.988Z,53.07
2018-05-31T12:08:27.053Z,53.66
2018-05-31T12:09:26.982Z,53.36
2018-05-31T12:10:26.971Z,53.95
2018-05-31T12:11:26.964Z,53.09
2018-05-31T12:12:26.951Z,53.34
2018-05-31T12:13:26.947Z,55.09
2018-05-31T12:14:26.940Z,56.46
2018-05-31T12:15:26.931Z,54.99
2018-05-31T12:16:26.921Z,55.29
2018-05-31T12:17:27.018Z,54.50
2018-05-31T12:18:26.911Z,55.16
2018-05-31T12:19:26.901Z,54.48
2018-05-31T12:20:26.894Z,55.16
2018-05-31T12:21:26.889Z,55.46
2018-05-31T12:22:26.880Z,55.16
2018-05-31T12:23:26.871Z,56.14
2018-05-31T12:24:26.860Z,56.43
2018-05-31T12:25:26.905Z,57.14
2018-05-31T12:26:26.847Z,57.40
2018-05-31T12:27:26.840Z,55.36
2018-05-31T12:28:26.835Z,55.46
2018-05-31T12:29:26.827Z,56.52
2018-05-31T12:30:26.817Z,56.33
2018-05-31T12:31:26.817Z,56.62
2018-05-31T12:32:26.809Z,56.50
2018-05-31T12:33:26.896Z,56.99
2018-05-31T12:34:26.785Z,57.47
2018-05-31T12:35:26.781Z,57.86
2018-05-31T12:36:26.771Z,57.47
2018-05-31T12:37:26.760Z,57.86
2018-05-31T12:38:26.753Z,57.96
2018-05-31T12:39:26.760Z,56.47
2018-05-31T12:40:26.737Z,56.89
2018-05-31T12:41:26.782Z,57.28
2018-05-31T12:42:26.721Z,57.76
2018-05-31T12:43:26.712Z,57.47
2018-05-31T12:44:26.714Z,57.37
2018-05-31T12:45:26.701Z,56.11
2018-05-31T12:46:26.691Z,56.60
2018-05-31T12:47:26.689Z,56.37
2018-05-31T12:48:26.674Z,55.89
2018-05-31T12:49:26.666Z,56.37
2018-05-31T12:50:26.672Z,56.50
2018-05-31T12:51:26.647Z,57.28
2018-05-31T12:52:26.644Z,56.60